createdAt,value
2022-10-24T00:01:10.341Z,55.85
2022-10-24T00:03:37.446Z,55.41
2022-10-24T00:06:06.959Z,55.31
2022-10-24T00:08:35.498Z,55.83
2022-10-24T00:11:02.818Z,55.38
2022-10-24T00:13:29.404Z,53.96
2022-10-24T00:15:55.959Z,54.82
2022-10-24T00:18:22.539Z,54.45
2022-10-24T00:20:49.077Z,55.18
2022-10-24T00:23:15.662Z,54.31
2022-10-24T00:25:42.198Z,54.52
2022-10-24T00:28:09.195Z,55.25
2022-10-24T00:30:35.835Z,54.28
2022-10-24T00:33:02.376Z,53.80
2022-10-24T00:35:29.113Z,54.23
2022-10-24T00:37:55.638Z,54.28
2022-10-24T00:40:22.288Z,52.96
2022-10-24T00:42:49.771Z,52.81
2022-10-24T00:45:42.487Z,52.50
2022-10-24T00:48:38.244Z,55.50
2022-10-24T00:51:10.930Z,54.31
2022-10-24T00:53:44.108Z,53.55
2022-10-24T00:56:13.756Z,53.15
2022-10-24T00:58:42.816Z,53.08
2022-10-24T01:01:10.843Z,53.79
2022-10-24T01:03:37.589Z,53.72
2022-10-24T01:06:19.452Z,53.86
2022-10-24T01:08:55.822Z,53.29
2022-10-24T01:11:53.053Z,52.63
2022-10-24T01:14:45.326Z,52.65
2022-10-24T01:17:48.165Z,52.43
2022-10-24T01:20:20.474Z,52.33
2022-10-24T01:23:17.312Z,52.30
2022-10-24T01:25:56.285Z,52.68
2022-10-24T01:28:34.549Z,52.75
2022-10-24T01:31:34.955Z,52.11
2022-10-24T01:34:14.031Z,53.34
2022-10-24T01:37:02.873Z,53.23
2022-10-24T01:39:35.596Z,53.12
2022-10-24T01:42:04.307Z,52.57
2022-10-24T01:44:37.190Z,52.09
2022-10-24T01:47:13.009Z,52.15
2022-10-24T01:49:43.889Z,51.60
2022-10-24T01:52:14.710Z,51.34
2022-10-24T01:54:43.488Z,51.51
2022-10-24T01:57:10.631Z,51.80
2022-10-24T01:59:41.477Z,51.64
2022-10-24T02:02:26.980Z,51.61
2022-10-24T02:04:59.544Z,51.10
2022-10-24T02:07:28.402Z,51.66
2022-10-24T02:10:00.918Z,52.11
2022-10-24T02:12:29.390Z,51.38
2022-10-24T02:15:06.696Z,51.48
2022-10-24T02:17:33.633Z,51.61
2022-10-24T02:20:00.585Z,52.47
2022-10-24T02:22:51.404Z,52.45
2022-10-24T02:25:24.988Z,52.77
2022-10-24T02:28:10.321Z,52.95
2022-10-24T02:30:47.147Z,52.84
2022-10-24T02:33:15.926Z,52.51
2022-10-24T02:35:45.902Z,52.26
2022-10-24T02:38:41.959Z,52.19
2022-10-24T02:41:13.198Z,52.08
2022-10-24T02:43:41.626Z,51.24
2022-10-24T02:46:11.563Z,52.01
2022-10-24T02:48:45.179Z,51.68
2022-10-24T02:51:14.542Z,52.61
2022-10-24T02:53:41.293Z,54.79
2022-10-24T02:56:07.847Z,55.89
2022-10-24T02:58:34.479Z,55.07
2022-10-24T03:01:01.439Z,55.40
2022-10-24T03:03:28.078Z,56.72
2022-10-24T03:05:54.719Z,57.75
2022-10-24T03:08:21.643Z,59.24
2022-10-24T03:10:48.177Z,57.97
2022-10-24T03:13:14.757Z,58.48
2022-10-24T03:15:41.370Z,58.72
2022-10-24T03:18:08.027Z,57.97
2022-10-24T03:20:34.572Z,58.34
2022-10-24T03:23:01.175Z,57.21
2022-10-24T03:25:27.737Z,59.24
2022-10-24T03:27:54.318Z,58.54
2022-10-24T03:30:20.968Z,57.55
2022-10-24T03:32:47.911Z,56.74
2022-10-24T03:35:14.721Z,56.28
2022-10-24T03:37:41.764Z,55.98
2022-10-24T03:40:10.005Z,57.38
2022-10-24T03:42:36.894Z,57.24
2022-10-24T03:45:03.787Z,57.06
2022-10-24T03:47:30.582Z,57.35
2022-10-24T03:49:57.473Z,58.30
2022-10-24T03:52:24.519Z,57.99
2022-10-24T03:54:51.115Z,56.94
2022-10-24T03:57:17.661Z,58.43
2022-10-24T03:59:44.953Z,58.72
2022-10-24T04:02:13.206Z,58.70
2022-10-24T04:04:40.366Z,59.08
2022-10-24T04:07:06.905Z,58.81
2022-10-24T04:09:33.510Z,59.19
2022-10-24T04:12:00.169Z,60.10
2022-10-24T04:14:27.127Z,58.42
2022-10-24T04:16:53.667Z,58.32
2022-10-24T04:19:20.265Z,58.92
2022-10-24T04:21:47.942Z,59.07
2022-10-24T04:24:14.790Z,58.43
2022-10-24T04:26:41.478Z,58.71
2022-10-24T04:29:08.118Z,58.29
2022-10-24T04:31:34.757Z,58.34
2022-10-24T04:34:01.340Z,58.80
2022-10-24T04:36:27.975Z,58.48
2022-10-24T04:38:54.557Z,59.02
2022-10-24T04:41:21.140Z,60.49
2022-10-24T04:43:48.353Z,60.00
2022-10-24T04:46:14.923Z,58.55
2022-10-24T04:48:41.888Z,59.67
2022-10-24T04:51:08.577Z,59.98
2022-10-24T04:53:35.259Z,58.66
2022-10-24T04:56:01.795Z,60.27
2022-10-24T04:58:28.384Z,58.27
2022-10-24T05:00:54.938Z,58.64
2022-10-24T05:03:23.296Z,60.91
2022-10-24T05:05:50.206Z,60.05
2022-10-24T05:08:17.734Z,58.98
2022-10-24T05:10:44.640Z,59.99
2022-10-24T05:13:11.594Z,58.76
2022-10-24T05:15:38.619Z,58.07
2022-10-24T05:18:05.571Z,60.49
2022-10-24T05:20:32.363Z,59.26
2022-10-24T05:22:59.028Z,59.81
2022-10-24T05:25:25.563Z,60.23
2022-10-24T05:27:52.177Z,59.61
2022-10-24T05:30:18.822Z,58.81
2022-10-24T05:32:46.428Z,58.24
2022-10-24T05:35:13.815Z,58.97
2022-10-24T05:37:40.465Z,59.00
2022-10-24T05:40:08.797Z,58.27
2022-10-24T05:42:36.472Z,59.06
2022-10-24T05:45:03.433Z,58.07
2022-10-24T05:47:30.017Z,57.52
2022-10-24T05:49:56.603Z,59.47
2022-10-24T05:52:23.226Z,59.18
2022-10-24T05:54:55.801Z,56.81
2022-10-24T05:57:33.706Z,58.48
2022-10-24T06:00:00.820Z,59.00
2022-10-24T06:02:27.602Z,60.42
2022-10-24T06:04:56.056Z,58.75
2022-10-24T06:07:23.302Z,57.71
2022-10-24T06:09:51.033Z,57.93
2022-10-24T06:12:17.606Z,57.98
2022-10-24T06:14:44.816Z,58.24
2022-10-24T06:17:11.976Z,58.26
2022-10-24T06:19:39.475Z,57.85
2022-10-24T06:22:07.287Z,57.28
2022-10-24T06:24:36.182Z,58.26
2022-10-24T06:27:03.162Z,57.71
2022-10-24T06:29:29.923Z,58.86
2022-10-24T06:31:56.544Z,57.99
2022-10-24T06:34:23.406Z,57.21
2022-10-24T06:36:50.149Z,58.88
2022-10-24T06:39:16.771Z,59.09
2022-10-24T06:41:45.021Z,56.90
2022-10-24T06:44:14.976Z,58.75
2022-10-24T06:46:41.676Z,58.95
2022-10-24T06:49:08.241Z,58.20
2022-10-24T06:51:34.809Z,57.77
2022-10-24T06:54:01.567Z,58.18
2022-10-24T06:56:28.112Z,57.07
2022-10-24T06:58:55.086Z,56.45
2022-10-24T07:01:23.897Z,57.16
2022-10-24T07:03:51.647Z,56.40
2022-10-24T07:08:55.181Z,56.34
2022-10-24T07:11:21.769Z,56.18
2022-10-24T07:13:49.158Z,57.37
2022-10-24T07:16:16.834Z,55.10
2022-10-24T07:18:44.258Z,53.91
2022-10-24T07:21:15.423Z,51.62
2022-10-24T07:23:42.230Z,51.80
2022-10-24T07:26:12.816Z,51.09
2022-10-24T07:28:40.329Z,50.24
2022-10-24T07:31:07.256Z,49.25
2022-10-24T07:33:34.722Z,50.52
2022-10-24T07:36:01.280Z,50.30
2022-10-24T07:38:27.823Z,51.02
2022-10-24T07:40:54.360Z,50.42
2022-10-24T07:43:20.932Z,51.17
2022-10-24T07:45:50.564Z,51.49
2022-10-24T07:48:19.727Z,50.99
2022-10-24T07:50:48.681Z,50.91
2022-10-24T07:53:15.852Z,51.25
2022-10-24T07:55:43.602Z,51.17
2022-10-24T07:58:11.510Z,52.94
2022-10-24T08:00:44.007Z,53.33
2022-10-24T08:03:11.699Z,51.39
2022-10-24T08:05:42.113Z,51.55
2022-10-24T08:08:30.720Z,53.80
2022-10-24T08:10:56.208Z,52.25
2022-10-24T08:13:22.745Z,51.60
2022-10-24T08:15:49.660Z,52.39
2022-10-24T08:18:16.195Z,51.12
2022-10-24T08:20:43.021Z,51.19
2022-10-24T08:23:09.663Z,50.42
2022-10-24T08:25:39.927Z,50.46
2022-10-24T08:28:08.276Z,49.17
2022-10-24T08:30:35.780Z,49.25
2022-10-24T08:33:02.389Z,50.00
2022-10-24T08:35:28.919Z,49.02
2022-10-24T08:37:55.447Z,49.83
2022-10-24T08:40:22.350Z,48.99
2022-10-24T08:42:49.490Z,50.24
2022-10-24T08:45:23.209Z,51.06
2022-10-24T08:48:02.295Z,50.87
2022-10-24T08:50:33.790Z,50.55
2022-10-24T08:53:12.486Z,50.28
2022-10-24T08:56:06.721Z,50.75
2022-10-24T08:58:41.065Z,50.01
2022-10-24T09:01:14.577Z,49.70
2022-10-24T09:03:55.695Z,50.42
2022-10-24T09:06:30.064Z,52.04
2022-10-24T09:09:03.607Z,50.49
2022-10-24T09:11:43.718Z,48.56
2022-10-24T09:14:16.293Z,46.35
2022-10-24T09:16:45.254Z,45.74
2022-10-24T09:19:16.722Z,43.63
2022-10-24T09:21:44.382Z,43.46
2022-10-24T09:24:41.176Z,42.72
2022-10-24T09:27:15.621Z,41.92
2022-10-24T09:29:42.646Z,40.20
2022-10-24T09:32:16.357Z,40.87
2022-10-24T09:34:43.308Z,40.64
2022-10-24T09:37:49.212Z,40.85
2022-10-24T09:40:27.790Z,41.14
2022-10-24T09:43:16.241Z,39.40
2022-10-24T09:46:10.428Z,38.94
2022-10-24T09:48:45.797Z,39.06
2022-10-24T09:51:38.696Z,38.22
2022-10-24T09:54:07.650Z,37.76
2022-10-24T09:56:40.367Z,36.34
2022-10-24T09:59:22.338Z,37.36
2022-10-24T10:01:49.447Z,36.98
2022-10-24T10:04:18.840Z,38.13
2022-10-24T10:06:49.081Z,37.16
2022-10-24T10:09:41.716Z,38.25
2022-10-24T10:12:40.829Z,37.31
2022-10-24T10:15:26.827Z,39.27
2022-10-24T10:17:57.558Z,37.78
2022-10-24T10:20:39.211Z,37.74
2022-10-24T10:23:22.316Z,37.54
2022-10-24T10:25:48.960Z,38.14
2022-10-24T10:28:20.801Z,38.96
2022-10-24T10:30:55.901Z,40.14
2022-10-24T10:33:47.763Z,41.34
2022-10-24T10:36:22.745Z,40.87
2022-10-24T10:39:27.755Z,42.74
2022-10-24T10:42:02.810Z,44.05
2022-10-24T10:44:41.547Z,44.33
2022-10-24T10:47:34.806Z,44.77
2022-10-24T10:50:11.322Z,43.82
2022-10-24T10:52:50.950Z,44.65
2022-10-24T10:55:35.056Z,44.10
2022-10-24T10:58:38.838Z,43.91
2022-10-24T11:01:12.962Z,44.37
2022-10-24T11:03:54.402Z,44.10
2022-10-24T11:06:29.073Z,45.71
2022-10-24T11:09:37.307Z,44.98
2022-10-24T11:12:19.586Z,45.31
2022-10-24T11:14:55.167Z,44.51
2022-10-24T11:17:37.762Z,45.71
2022-10-24T11:20:13.387Z,45.07
2022-10-24T11:22:55.781Z,45.16
2022-10-24T11:25:33.187Z,46.23
2022-10-24T11:28:07.270Z,45.94
2022-10-24T11:30:43.115Z,45.29
2022-10-24T11:33:17.296Z,44.06
2022-10-24T11:36:00.704Z,44.89
2022-10-24T11:38:30.364Z,45.30
2022-10-24T11:41:15.938Z,45.05
2022-10-24T11:43:46.749Z,45.42
2022-10-24T11:46:26.264Z,46.10
2022-10-24T11:48:59.223Z,45.60
2022-10-24T11:51:49.753Z,45.05
2022-10-24T11:54:22.314Z,46.96
2022-10-24T11:56:54.905Z,45.91
2022-10-24T11:59:25.637Z,43.51
2022-10-24T12:01:55.357Z,44.42
2022-10-24T12:04:38.369Z,44.04
2022-10-24T12:07:22.561Z,43.99
2022-10-24T12:09:55.358Z,43.03
2022-10-24T12:12:32.938Z,43.92
2022-10-24T12:15:37.660Z,44.84
2022-10-24T12:18:24.421Z,45.22
2022-10-24T12:20:55.756Z,45.17
2022-10-24T12:23:27.515Z,44.93
2022-10-24T12:26:06.477Z,45.76
2022-10-24T12:28:34.223Z,45.17
2022-10-24T12:31:15.737Z,44.48
2022-10-24T12:34:08.303Z,44.30
2022-10-24T12:37:12.443Z,46.11
2022-10-24T12:39:47.431Z,45.34
2022-10-24T12:42:37.351Z,44.69
2022-10-24T12:45:03.857Z,46.26
2022-10-24T12:48:12.891Z,44.45
2022-10-24T12:50:39.888Z,45.44
2022-10-24T12:53:29.143Z,44.62
2022-10-24T12:55:55.690Z,45.79
2022-10-24T12:58:31.831Z,45.48
2022-10-24T13:01:01.112Z,45.94
2022-10-24T13:03:55.549Z,44.63
2022-10-24T13:06:58.390Z,44.67
2022-10-24T13:09:54.023Z,45.79
2022-10-24T13:12:40.331Z,46.31
2022-10-24T13:15:24.734Z,44.97
2022-10-24T13:18:19.405Z,44.03
2022-10-24T13:20:51.523Z,44.69
2022-10-24T13:23:24.966Z,45.26
2022-10-24T13:25:57.135Z,45.46
2022-10-24T13:28:23.636Z,45.17
2022-10-24T13:31:00.184Z,45.22
2022-10-24T13:33:30.004Z,44.28
2022-10-24T13:36:18.036Z,44.02
2022-10-24T13:38:57.123Z,45.50
2022-10-24T13:41:34.416Z,45.02
2022-10-24T13:44:06.843Z,44.87
2022-10-24T13:46:54.232Z,45.10
2022-10-24T13:49:47.840Z,44.55
2022-10-24T13:52:24.344Z,43.32
2022-10-24T13:54:58.391Z,44.10
2022-10-24T13:57:26.266Z,44.33
2022-10-24T13:59:55.667Z,44.10
2022-10-24T14:02:28.374Z,43.72
2022-10-24T14:04:58.615Z,44.06
2022-10-24T14:07:28.977Z,43.44
2022-10-24T14:10:09.341Z,43.80
2022-10-24T14:12:39.321Z,44.72
2022-10-24T14:15:16.070Z,43.57
2022-10-24T14:17:53.893Z,42.44
2022-10-24T14:20:38.888Z,43.36
2022-10-24T14:23:25.671Z,42.72
2022-10-24T14:26:19.880Z,43.06
2022-10-24T14:28:59.848Z,44.21
2022-10-24T14:31:32.608Z,45.12
2022-10-24T14:33:59.130Z,44.56
2022-10-24T14:36:29.558Z,44.45
2022-10-24T14:38:59.108Z,44.95
2022-10-24T14:41:31.066Z,45.22
2022-10-24T14:43:59.367Z,47.71
2022-10-24T14:46:42.730Z,50.00
2022-10-24T14:49:27.699Z,50.24
2022-10-24T14:52:08.274Z,50.44
2022-10-24T14:54:35.589Z,51.36
2022-10-24T14:57:04.813Z,51.26
2022-10-24T14:59:36.221Z,51.22
2022-10-24T15:02:25.240Z,49.55
2022-10-24T15:04:53.782Z,48.80
2022-10-24T15:07:23.090Z,48.05
2022-10-24T15:09:55.560Z,48.55
2022-10-24T15:12:33.465Z,47.69
2022-10-24T15:15:22.729Z,47.03
2022-10-24T15:17:51.657Z,47.93
2022-10-24T15:20:22.368Z,48.69
2022-10-24T15:22:59.657Z,49.18
2022-10-24T15:25:34.795Z,49.51
2022-10-24T15:28:05.669Z,48.64
2022-10-24T15:30:37.166Z,47.54
2022-10-24T15:33:06.342Z,47.58
2022-10-24T15:35:41.262Z,47.96
2022-10-24T15:38:15.390Z,48.96
2022-10-24T15:40:44.930Z,48.22
2022-10-24T15:43:14.182Z,48.19
2022-10-24T15:45:40.775Z,47.81
2022-10-24T15:48:07.881Z,48.45
2022-10-24T15:50:34.902Z,48.64
2022-10-24T15:53:03.538Z,49.19
2022-10-24T15:55:32.028Z,48.02
2022-10-24T15:58:03.007Z,48.35
2022-10-24T16:00:29.738Z,49.39
2022-10-24T16:02:58.379Z,51.29
2022-10-24T16:05:29.694Z,49.96
2022-10-24T16:08:19.812Z,50.20
2022-10-24T16:10:51.857Z,51.08
2022-10-24T16:13:21.203Z,50.35
2022-10-24T16:15:48.387Z,50.24
2022-10-24T16:18:15.514Z,50.31
2022-10-24T16:20:42.509Z,51.23
2022-10-24T16:23:10.513Z,50.80
2022-10-24T16:25:37.842Z,51.09
2022-10-24T16:28:07.103Z,50.93
2022-10-24T16:30:36.754Z,50.71
2022-10-24T16:33:03.478Z,50.94
2022-10-24T16:35:32.634Z,50.98
2022-10-24T16:38:01.230Z,50.12
2022-10-24T16:40:29.027Z,50.66
2022-10-24T16:42:57.333Z,50.37
2022-10-24T16:45:24.972Z,50.17
2022-10-24T16:47:51.574Z,50.20
2022-10-24T16:50:23.926Z,49.59
2022-10-24T16:52:52.576Z,48.70
2022-10-24T16:55:20.924Z,49.00
2022-10-24T16:57:48.395Z,49.40
2022-10-24T17:00:17.371Z,50.36
2022-10-24T17:02:45.590Z,49.15
2022-10-24T17:05:13.471Z,49.01
2022-10-24T17:07:41.073Z,47.72
2022-10-24T17:10:09.265Z,47.47
2022-10-24T17:12:35.796Z,48.47
2022-10-24T17:15:02.423Z,48.62
2022-10-24T17:17:29.937Z,48.91
2022-10-24T17:19:56.610Z,48.34
2022-10-24T17:22:23.399Z,48.12
2022-10-24T17:24:50.349Z,47.67
2022-10-24T17:27:17.499Z,46.53
2022-10-24T17:29:44.625Z,48.41
2022-10-24T17:32:13.366Z,48.63
2022-10-24T17:34:41.891Z,47.94
2022-10-24T17:37:50.407Z,50.51
2022-10-24T17:40:20.495Z,49.62
2022-10-24T17:42:48.321Z,49.62
2022-10-24T17:45:17.849Z,49.43
2022-10-24T17:50:17.620Z,50.39
2022-10-24T17:52:50.126Z,50.35
2022-10-24T17:58:10.912Z,49.72
2022-10-24T18:00:37.545Z,49.73
2022-10-24T18:03:04.817Z,50.02
2022-10-24T18:05:34.152Z,49.46
2022-10-24T18:08:00.714Z,49.40
2022-10-24T18:10:27.251Z,51.05
2022-10-24T18:12:53.901Z,49.71
2022-10-24T18:15:20.794Z,49.76
2022-10-24T18:17:48.350Z,50.60
2022-10-24T18:20:15.660Z,50.57
2022-10-24T18:22:43.631Z,50.01
2022-10-24T18:25:13.011Z,49.73
2022-10-24T18:27:41.907Z,49.80
2022-10-24T18:30:09.833Z,49.27
2022-10-24T18:32:36.534Z,49.10
2022-10-24T18:35:03.357Z,49.35
2022-10-24T18:37:30.267Z,49.59
2022-10-24T18:39:57.074Z,50.50
2022-10-24T18:42:32.368Z,49.13
2022-10-24T18:44:59.969Z,51.36
2022-10-24T18:47:27.137Z,51.35
2022-10-24T18:49:54.455Z,50.65
2022-10-24T18:52:42.211Z,52.81
2022-10-24T18:55:19.015Z,53.74
2022-10-24T18:57:46.914Z,52.88
2022-10-24T19:00:17.428Z,52.80
2022-10-24T19:02:49.985Z,52.31
2022-10-24T19:05:16.770Z,51.45
2022-10-24T19:07:45.970Z,51.51
2022-10-24T19:10:25.394Z,51.25
2022-10-24T19:12:54.195Z,52.11
2022-10-24T19:15:21.653Z,51.05
2022-10-24T19:17:50.219Z,50.77
2022-10-24T19:20:20.169Z,50.78
2022-10-24T19:22:47.589Z,50.71
2022-10-24T19:25:15.680Z,50.71
2022-10-24T19:27:43.417Z,51.29
2022-10-24T19:30:11.064Z,50.68
2022-10-24T19:32:37.690Z,49.05
2022-10-24T19:35:04.622Z,49.18
2022-10-24T19:37:31.164Z,50.70
2022-10-24T19:39:57.783Z,50.12
2022-10-24T19:42:24.439Z,50.65
2022-10-24T19:44:54.521Z,49.93
2022-10-24T19:47:21.676Z,50.21
2022-10-24T19:49:49.424Z,49.60
2022-10-24T19:52:16.320Z,49.74
2022-10-24T19:54:42.861Z,49.41
2022-10-24T19:57:09.743Z,50.08
2022-10-24T19:59:36.532Z,50.65
2022-10-24T20:02:04.880Z,51.41
2022-10-24T20:04:31.772Z,50.72
2022-10-24T20:06:58.817Z,51.79
2022-10-24T20:09:25.449Z,52.08
2022-10-24T20:11:51.969Z,51.66
2022-10-24T20:14:19.375Z,52.53
2022-10-24T20:16:46.003Z,52.79
2022-10-24T20:19:12.572Z,51.90
2022-10-24T20:21:39.206Z,52.70
2022-10-24T20:24:06.224Z,53.60
2022-10-24T20:26:32.818Z,52.04
2022-10-24T20:28:59.696Z,51.98
2022-10-24T20:31:39.493Z,53.72
2022-10-24T20:34:10.717Z,52.96
2022-10-24T20:36:39.960Z,52.63
2022-10-24T20:39:07.842Z,52.20
2022-10-24T20:41:34.946Z,52.15
2022-10-24T20:44:03.462Z,50.95
2022-10-24T20:46:31.247Z,52.24
2022-10-24T20:48:58.259Z,52.89
2022-10-24T20:51:24.900Z,51.69
2022-10-24T20:53:51.914Z,51.95
2022-10-24T20:56:23.335Z,50.99
2022-10-24T20:58:51.525Z,50.09
2022-10-24T21:01:23.810Z,50.55
2022-10-24T21:03:51.789Z,49.92
2022-10-24T21:06:18.316Z,50.25
2022-10-24T21:08:48.026Z,50.95
2022-10-24T21:11:16.490Z,50.13
2022-10-24T21:13:44.293Z,49.82
2022-10-24T21:16:11.844Z,49.70
2022-10-24T21:18:38.428Z,50.56
2022-10-24T21:21:10.179Z,49.90
2022-10-24T21:23:36.870Z,49.63
2022-10-24T21:26:06.107Z,49.85
2022-10-24T21:28:33.447Z,49.70
2022-10-24T21:31:08.820Z,49.56
2022-10-24T21:33:35.774Z,49.97
2022-10-24T21:36:13.633Z,49.06
2022-10-24T21:38:41.905Z,49.66
2022-10-24T21:41:10.751Z,49.46
2022-10-24T21:43:40.236Z,48.78
2022-10-24T21:46:12.798Z,49.19
2022-10-24T21:48:41.138Z,49.71
2022-10-24T21:51:23.007Z,50.57
2022-10-24T21:53:55.488Z,51.22
2022-10-24T21:56:24.699Z,50.53
2022-10-24T21:58:54.497Z,49.08
2022-10-24T22:01:25.846Z,48.37
2022-10-24T22:03:54.189Z,48.70
2022-10-24T22:06:21.893Z,48.80
2022-10-24T22:08:50.140Z,48.77
2022-10-24T22:11:25.288Z,48.16
2022-10-24T22:13:52.389Z,48.29
2022-10-24T22:16:22.098Z,48.70
2022-10-24T22:18:49.878Z,49.80
2022-10-24T22:21:28.343Z,48.83
2022-10-24T22:23:56.720Z,49.66
2022-10-24T22:26:24.654Z,49.57
2022-10-24T22:28:51.468Z,49.88
2022-10-24T22:31:18.930Z,50.50
2022-10-24T22:33:45.593Z,49.90
2022-10-24T22:36:22.805Z,49.67
2022-10-24T22:38:53.865Z,50.20
2022-10-24T22:41:21.847Z,50.84
2022-10-24T22:43:49.264Z,51.38
2022-10-24T22:46:37.688Z,50.98
2022-10-24T22:49:15.639Z,51.14
2022-10-24T22:51:42.373Z,50.96
2022-10-24T22:54:17.909Z,52.03
2022-10-24T22:56:44.749Z,52.33
2022-10-24T22:59:11.602Z,51.65
2022-10-24T23:01:56.439Z,50.91
2022-10-24T23:04:56.991Z,51.98
2022-10-24T23:07:47.679Z,51.90
2022-10-24T23:10:19.895Z,51.41
2022-10-24T23:12:47.621Z,54.32
2022-10-24T23:15:16.569Z,53.21
2022-10-24T23:17:44.285Z,52.20
2022-10-24T23:20:24.715Z,51.76
2022-10-24T23:22:58.522Z,52.63
2022-10-24T23:25:36.724Z,50.82
2022-10-24T23:28:15.858Z,51.86
2022-10-24T23:30:42.679Z,52.35
2022-10-24T23:33:16.454Z,51.90
2022-10-24T23:35:44.209Z,51.61
2022-10-24T23:38:10.992Z,51.35
2022-10-24T23:40:38.483Z,51.63
2022-10-24T23:43:05.186Z,50.99
2022-10-24T23:45:39.417Z,51.97
2022-10-24T23:48:27.138Z,50.54
2022-10-24T23:50:59.330Z,50.06
2022-10-24T23:53:52.797Z,50.23
2022-10-24T23:56:24.923Z,49.63
2022-10-24T23:58:52.273Z,49.54
